Time;durP1;ratioP1;P1;durP2;ratioP2;P2;SDS_P1;SDS_P2;PMS_P1;PMS_P2;Temp;Humidity;BMP_temperature;BMP_pressure;BME280_temperature;BME280_humidity;BME280_pressure;Samples;Min_cycle;Max_cycle;Signal;HPM_P1;HPM_P2
2023/04/29 00:01:34;;;;;;;;;;;21.80;57.20;;;;;;1590071;73;636;-66
2023/04/29 00:03:36;;;;;;;;;;;21.80;57.10;;;;;;1600638;73;782;-66
2023/04/29 00:05:38;;;;;;;;;;;21.80;57.10;;;;;;1598857;73;1140;-67
2023/04/29 00:07:40;;;;;;;;;;;21.80;57.10;;;;;;1575161;73;806;-66
2023/04/29 00:09:42;;;;;;;;;;;21.80;57.10;;;;;;1599907;73;1939;-67
2023/04/29 00:11:43;;;;;;;;;;;21.80;57.00;;;;;;1597427;73;1444;-65
2023/04/29 00:13:45;;;;;;;;;;;21.90;57.00;;;;;;1588960;73;810;-66
2023/04/29 00:15:47;;;;;;;;;;;21.90;57.00;;;;;;1583212;73;1166;-66
2023/04/29 00:17:49;;;;;;;;;;;21.90;57.10;;;;;;1586940;73;762;-66
2023/04/29 00:19:51;;;;;;;;;;;21.80;57.00;;;;;;1591341;73;740;-66
2023/04/29 00:21:53;;;;;;;;;;;21.80;57.00;;;;;;1579595;74;789;-67
2023/04/29 00:23:55;;;;;;;;;;;21.80;57.00;;;;;;1583125;73;816;-66
2023/04/29 00:25:57;;;;;;;;;;;21.90;57.00;;;;;;1594456;73;1579;-67
2023/04/29 00:28:00;;;;;;;;;;;21.80;56.80;;;;;;1571924;73;774;-67
2023/04/29 00:30:02;;;;;;;;;;;21.80;56.80;;;;;;1585913;73;1945;-67
2023/04/29 00:32:04;;;;;;;;;;;21.80;56.70;;;;;;1596551;73;773;-67
2023/04/29 00:34:06;;;;;;;;;;;21.80;56.70;;;;;;1584906;73;770;-66
2023/04/29 00:36:08;;;;;;;;;;;21.90;56.80;;;;;;1575267;73;1179;-66
2023/04/29 00:38:10;;;;;;;;;;;21.90;56.80;;;;;;1591660;73;1431;-66
2023/04/29 00:40:14;;;;;;;;;;;21.90;56.80;;;;;;1585240;73;709;-66
2023/04/29 00:42:15;;;;;;;;;;;21.90;56.80;;;;;;1589204;73;727;-66
2023/04/29 00:44:17;;;;;;;;;;;21.90;56.80;;;;;;1588238;73;766;-65
2023/04/29 00:46:19;;;;;;;;;;;21.80;56.70;;;;;;1587109;73;1136;-66
2023/04/29 00:48:21;;;;;;;;;;;21.90;56.80;;;;;;1588275;73;650;-66
2023/04/29 00:50:23;;;;;;;;;;;21.90;56.80;;;;;;1585529;73;1941;-67
2023/04/29 00:52:26;;;;;;;;;;;21.90;56.70;;;;;;1581192;73;1431;-68
2023/04/29 00:54:27;;;;;;;;;;;21.80;56.60;;;;;;1589928;73;671;-65
2023/04/29 00:56:30;;;;;;;;;;;21.90;56.80;;;;;;1593819;73;1098;-66
2023/04/29 00:58:34;;;;;;;;;;;21.80;56.60;;;;;;1578977;73;763;-67
2023/04/29 01:00:35;;;;;;;;;;;21.80;56.60;;;;;;1593161;73;1604;-66
2023/04/29 01:02:37;;;;;;;;;;;21.90;56.80;;;;;;1581612;73;807;-65
2023/04/29 01:04:39;;;;;;;;;;;21.90;56.70;;;;;;1581114;73;771;-64
2023/04/29 01:06:59;;;;;;;;;;;21.90;56.60;;;;;;1591614;73;1432;-64
2023/04/29 01:09:15;;;;;;;;;;;21.90;56.60;;;;;;1582094;73;808;-64
2023/04/29 01:11:16;;;;;;;;;;;21.90;56.90;;;;;;1583216;73;1938;-64
2023/04/29 01:13:20;;;;;;;;;;;21.80;56.60;;;;;;1583412;73;773;-65
2023/04/29 01:15:29;;;;;;;;;;;21.80;56.60;;;;;;1564754;73;1247;-65
2023/04/29 01:17:31;;;;;;;;;;;21.80;56.80;;;;;;1583856;73;782;-65
2023/04/29 01:19:42;;;;;;;;;;;21.80;57.10;;;;;;1592811;73;772;-65
2023/04/29 01:21:50;;;;;;;;;;;21.80;57.30;;;;;;1582357;73;1367;-64
2023/04/29 01:23:54;;;;;;;;;;;21.80;57.40;;;;;;1587572;73;759;-63
2023/04/29 01:25:55;;;;;;;;;;;21.70;57.50;;;;;;1575339;73;1572;-63
2023/04/29 01:27:59;;;;;;;;;;;21.80;57.30;;;;;;1579963;73;772;-63
2023/04/29 01:30:02;;;;;;;;;;;21.80;57.30;;;;;;1595502;73;1941;-63
2023/04/29 01:32:08;;;;;;;;;;;21.70;57.30;;;;;;1571066;73;626;-63
2023/04/29 01:34:11;;;;;;;;;;;21.80;57.20;;;;;;1590043;73;533;-64
2023/04/29 01:36:34;;;;;;;;;;;21.80;57.10;;;;;;1598203;73;1409;-64
2023/04/29 01:38:37;;;;;;;;;;;21.80;57.10;;;;;;1589053;73;721;-64
2023/04/29 01:40:40;;;;;;;;;;;21.70;57.20;;;;;;1593760;73;782;-64
2023/04/29 01:42:50;;;;;;;;;;;21.80;57.50;;;;;;1588080;73;1687;-64
2023/04/29 01:44:52;;;;;;;;;;;21.80;57.60;;;;;;1591666;73;1129;-64
2023/04/29 01:46:55;;;;;;;;;;;21.70;57.50;;;;;;1584482;73;779;-64
2023/04/29 01:48:57;;;;;;;;;;;21.70;57.80;;;;;;1579003;73;1434;-64
2023/04/29 01:50:58;;;;;;;;;;;21.70;57.80;;;;;;1596840;73;1955;-65
2023/04/29 01:53:00;;;;;;;;;;;21.70;58.50;;;;;;1578213;73;646;-65
2023/04/29 01:55:02;;;;;;;;;;;21.70;58.60;;;;;;1579370;73;1136;-64
2023/04/29 01:57:04;;;;;;;;;;;21.60;58.50;;;;;;1582895;73;795;-65
2023/04/29 01:59:07;;;;;;;;;;;21.60;58.60;;;;;;1586945;73;763;-65
2023/04/29 02:01:09;;;;;;;;;;;21.60;58.50;;;;;;1588108;73;783;-65
2023/04/29 02:03:11;;;;;;;;;;;21.60;58.60;;;;;;1598033;73;1445;-65
2023/04/29 02:05:13;;;;;;;;;;;21.60;58.60;;;;;;1590452;73;1119;-66
2023/04/29 02:07:15;;;;;;;;;;;21.60;58.60;;;;;;1586807;73;634;-65
2023/04/29 02:09:17;;;;;;;;;;;21.60;58.70;;;;;;1581190;73;795;-66
2023/04/29 02:11:19;;;;;;;;;;;21.60;58.90;;;;;;1585773;73;1939;-66
2023/04/29 02:13:21;;;;;;;;;;;21.60;58.90;;;;;;1588588;73;753;-65
2023/04/29 02:15:22;;;;;;;;;;;21.50;59.00;;;;;;1589348;74;1126;-65
2023/04/29 02:17:25;;;;;;;;;;;21.60;59.00;;;;;;1554487;74;1478;-66
2023/04/29 02:19:26;;;;;;;;;;;21.60;59.00;;;;;;1565257;74;780;-65
2023/04/29 02:21:28;;;;;;;;;;;21.50;58.90;;;;;;1602206;74;777;-66
2023/04/29 02:23:30;;;;;;;;;;;21.60;58.90;;;;;;1596027;73;764;-67
2023/04/29 02:25:32;;;;;;;;;;;21.50;58.90;;;;;;1583229;73;1119;-66
2023/04/29 02:27:34;;;;;;;;;;;21.60;58.90;;;;;;1601003;73;775;-66
2023/04/29 02:29:36;;;;;;;;;;;21.60;58.90;;;;;;1590069;73;813;-66
2023/04/29 02:31:38;;;;;;;;;;;21.60;58.90;;;;;;1592961;73;1921;-66
2023/04/29 02:33:40;;;;;;;;;;;21.60;58.90;;;;;;1590683;73;779;-66
2023/04/29 02:35:42;;;;;;;;;;;21.60;58.90;;;;;;1596356;73;1144;-67
2023/04/29 02:37:44;;;;;;;;;;;21.60;58.90;;;;;;1589073;73;767;-65
2023/04/29 02:39:46;;;;;;;;;;;21.60;58.90;;;;;;1602360;73;780;-65
2023/04/29 02:41:48;;;;;;;;;;;21.60;58.80;;;;;;1591343;73;503;-65
2023/04/29 02:43:49;;;;;;;;;;;21.60;58.60;;;;;;1589034;73;733;-64
2023/04/29 02:45:51;;;;;;;;;;;21.60;58.80;;;;;;1590403;73;1424;-64
2023/04/29 02:47:53;;;;;;;;;;;21.60;58.60;;;;;;1587910;73;794;-65
2023/04/29 02:49:55;;;;;;;;;;;21.60;58.70;;;;;;1583030;73;806;-64
2023/04/29 02:51:57;;;;;;;;;;;21.70;58.60;;;;;;1582692;73;685;-65
2023/04/29 02:53:59;;;;;;;;;;;21.60;58.60;;;;;;1587769;73;643;-64
2023/04/29 02:56:01;;;;;;;;;;;21.70;58.70;;;;;;1595112;73;1300;-66
2023/04/29 02:58:03;;;;;;;;;;;21.60;58.60;;;;;;1590113;73;818;-66
2023/04/29 03:00:05;;;;;;;;;;;21.60;58.60;;;;;;1599385;73;1497;-62
2023/04/29 03:02:07;;;;;;;;;;;21.70;58.60;;;;;;1595651;73;783;-63
2023/04/29 03:04:09;;;;;;;;;;;21.70;58.60;;;;;;1601994;73;742;-65
2023/04/29 03:06:11;;;;;;;;;;;21.70;58.10;;;;;;1597432;73;1123;-62
2023/04/29 03:08:13;;;;;;;;;;;21.80;58.00;;;;;;1585936;73;740;-63
2023/04/29 03:10:15;;;;;;;;;;;21.80;58.00;;;;;;1598396;73;1940;-63
2023/04/29 03:12:17;;;;;;;;;;;21.80;58.00;;;;;;1586511;73;752;-63
2023/04/29 03:14:18;;;;;;;;;;;21.80;58.00;;;;;;1589488;73;1422;-63
2023/04/29 03:16:20;;;;;;;;;;;21.80;57.80;;;;;;1587090;73;1124;-64
2023/04/29 03:18:22;;;;;;;;;;;21.80;57.70;;;;;;1597769;73;763;-63
2023/04/29 03:20:24;;;;;;;;;;;21.80;57.60;;;;;;1594648;73;648;-64
2023/04/29 03:22:26;;;;;;;;;;;21.90;57.60;;;;;;1594010;73;778;-63
2023/04/29 03:24:28;;;;;;;;;;;21.90;57.40;;;;;;1590925;73;768;-64
2023/04/29 03:26:30;;;;;;;;;;;21.90;57.20;;;;;;1596598;73;1128;-63
2023/04/29 03:28:32;;;;;;;;;;;21.90;57.10;;;;;;1587937;73;1457;-64
2023/04/29 03:30:34;;;;;;;;;;;21.90;57.00;;;;;;1596369;73;1945;-65
2023/04/29 03:32:36;;;;;;;;;;;22.00;56.90;;;;;;1587750;73;771;-63
2023/04/29 03:34:37;;;;;;;;;;;21.90;56.80;;;;;;1598049;73;782;-64
2023/04/29 03:36:39;;;;;;;;;;;21.90;56.80;;;;;;1583748;73;1116;-63
2023/04/29 03:38:41;;;;;;;;;;;21.90;56.90;;;;;;1604578;73;799;-63
2023/04/29 03:40:44;;;;;;;;;;;22.00;56.80;;;;;;1588889;73;771;-63
2023/04/29 03:42:46;;;;;;;;;;;21.90;56.70;;;;;;1604299;73;1459;-62
2023/04/29 03:44:48;;;;;;;;;;;22.00;56.60;;;;;;1587847;73;762;-62
2023/04/29 03:46:49;;;;;;;;;;;21.90;56.50;;;;;;1597216;73;814;-63
2023/04/29 03:48:54;;;;;;;;;;;22.00;56.60;;;;;;1610666;73;633;-63
2023/04/29 03:50:55;;;;;;;;;;;21.90;56.60;;;;;;1587722;73;1943;-64
2023/04/29 03:52:57;;;;;;;;;;;21.90;56.70;;;;;;1586944;73;788;-63
2023/04/29 03:54:59;;;;;;;;;;;21.90;56.70;;;;;;1604856;73;1120;-64
2023/04/29 03:57:02;;;;;;;;;;;21.90;56.70;;;;;;1587261;73;787;-63
2023/04/29 03:59:04;;;;;;;;;;;21.90;56.80;;;;;;1589185;73;790;-65
2023/04/29 04:01:06;;;;;;;;;;;21.90;56.60;;;;;;1596822;73;779;-63
2023/04/29 04:03:08;;;;;;;;;;;21.90;56.70;;;;;;1599927;73;774;-63
2023/04/29 04:05:09;;;;;;;;;;;21.90;56.60;;;;;;1578669;73;1132;-64
2023/04/29 04:07:11;;;;;;;;;;;22.00;56.50;;;;;;1582651;73;782;-62
2023/04/29 04:09:13;;;;;;;;;;;22.00;56.50;;;;;;1588402;73;1328;-62
2023/04/29 04:11:15;;;;;;;;;;;21.90;56.50;;;;;;1586846;73;1946;-64
2023/04/29 04:13:17;;;;;;;;;;;21.90;56.50;;;;;;1598992;73;749;-63
2023/04/29 04:15:19;;;;;;;;;;;22.00;56.50;;;;;;1586371;73;1085;-63
2023/04/29 04:17:21;;;;;;;;;;;22.00;56.30;;;;;;1589557;73;748;-64
2023/04/29 04:19:23;;;;;;;;;;;22.00;56.30;;;;;;1586814;73;788;-62
2023/04/29 04:21:26;;;;;;;;;;;22.00;56.20;;;;;;1588703;73;656;-62
2023/04/29 04:23:28;;;;;;;;;;;22.00;56.10;;;;;;1598524;73;1431;-63
2023/04/29 04:25:30;;;;;;;;;;;22.00;56.20;;;;;;1586698;73;1089;-63
2023/04/29 04:27:32;;;;;;;;;;;22.00;56.10;;;;;;1585865;73;749;-61
2023/04/29 04:29:34;;;;;;;;;;;22.00;56.10;;;;;;1593134;74;815;-61
2023/04/29 04:31:35;;;;;;;;;;;22.00;56.20;;;;;;1582195;73;1942;-61
2023/04/29 04:33:37;;;;;;;;;;;22.00;56.30;;;;;;1595981;73;676;-61
2023/04/29 04:35:39;;;;;;;;;;;22.00;56.50;;;;;;1592740;73;1170;-62
2023/04/29 04:37:41;;;;;;;;;;;21.90;56.50;;;;;;1586228;74;1435;-62
2023/04/29 04:39:43;;;;;;;;;;;22.00;56.50;;;;;;1586739;73;771;-63
2023/04/29 04:41:45;;;;;;;;;;;21.90;56.70;;;;;;1579117;73;776;-61
2023/04/29 04:43:47;;;;;;;;;;;21.90;56.50;;;;;;1579400;73;782;-62
2023/04/29 04:45:48;;;;;;;;;;;21.90;56.50;;;;;;1593381;73;1220;-62
2023/04/29 04:47:50;;;;;;;;;;;21.90;56.40;;;;;;1597890;73;792;-61
2023/04/29 04:49:52;;;;;;;;;;;21.90;56.40;;;;;;1592450;73;743;-63
2023/04/29 04:51:54;;;;;;;;;;;21.90;56.50;;;;;;1588904;73;1924;-62
2023/04/29 04:53:56;;;;;;;;;;;22.00;56.40;;;;;;1583482;73;816;-63
2023/04/29 04:55:59;;;;;;;;;;;21.90;56.40;;;;;;1597736;73;1160;-62
2023/04/29 04:58:01;;;;;;;;;;;21.90;56.50;;;;;;1582279;73;815;-62
2023/04/29 05:00:04;;;;;;;;;;;22.00;56.30;;;;;;1590971;73;748;-61
2023/04/29 05:02:07;;;;;;;;;;;22.00;56.20;;;;;;1595321;73;772;-62
2023/04/29 05:04:09;;;;;;;;;;;22.00;56.20;;;;;;1587039;73;898;-61
2023/04/29 05:06:11;;;;;;;;;;;21.90;56.50;;;;;;1594622;73;1432;-61
2023/04/29 05:08:13;;;;;;;;;;;21.90;56.50;;;;;;1586861;73;786;-61
2023/04/29 05:10:15;;;;;;;;;;;21.90;56.50;;;;;;1607560;73;759;-61
2023/04/29 05:12:16;;;;;;;;;;;21.90;56.50;;;;;;1589725;73;1952;-61
2023/04/29 05:14:18;;;;;;;;;;;21.90;56.50;;;;;;1587188;73;675;-62
2023/04/29 05:16:20;;;;;;;;;;;21.90;56.50;;;;;;1597138;73;1177;-62
2023/04/29 05:18:22;;;;;;;;;;;21.90;56.50;;;;;;1588249;73;791;-63
2023/04/29 05:20:24;;;;;;;;;;;21.90;56.70;;;;;;1592609;73;1459;-63
2023/04/29 05:22:26;;;;;;;;;;;21.80;56.80;;;;;;1594483;73;760;-62
2023/04/29 05:24:29;;;;;;;;;;;21.80;56.80;;;;;;1591803;73;790;-62
2023/04/29 05:26:31;;;;;;;;;;;21.90;57.00;;;;;;1590989;73;1197;-62
2023/04/29 05:28:32;;;;;;;;;;;21.80;57.00;;;;;;1596664;73;728;-61
2023/04/29 05:30:36;;;;;;;;;;;21.90;57.10;;;;;;1591437;73;763;-62
2023/04/29 05:32:38;;;;;;;;;;;21.90;57.10;;;;;;1591380;73;1947;-63
2023/04/29 05:34:40;;;;;;;;;;;21.80;57.10;;;;;;1597515;73;1428;-62
2023/04/29 05:36:42;;;;;;;;;;;21.90;57.20;;;;;;1591123;73;1109;-62
2023/04/29 05:38:44;;;;;;;;;;;21.80;57.10;;;;;;1589841;73;774;-63
2023/04/29 05:40:48;;;;;;;;;;;21.80;57.10;;;;;;1588288;73;743;-63
2023/04/29 05:42:50;;;;;;;;;;;21.80;57.00;;;;;;1598752;73;1446;-63
2023/04/29 05:44:52;;;;;;;;;;;21.80;57.00;;;;;;1597585;73;1238;-63
2023/04/29 05:46:54;;;;;;;;;;;21.80;57.10;;;;;;1597322;73;797;-62
2023/04/29 05:48:56;;;;;;;;;;;21.80;57.30;;;;;;1596330;73;1429;-62
2023/04/29 05:50:57;;;;;;;;;;;21.80;57.40;;;;;;1592385;73;774;-62
2023/04/29 05:52:59;;;;;;;;;;;21.80;57.40;;;;;;1594165;73;1950;-62
2023/04/29 05:55:01;;;;;;;;;;;21.80;57.70;;;;;;1593321;73;1164;-62
2023/04/29 05:57:04;;;;;;;;;;;21.70;57.70;;;;;;1594228;74;792;-64
2023/04/29 05:59:06;;;;;;;;;;;21.70;57.80;;;;;;1584818;73;757;-64
2023/04/29 06:01:07;;;;;;;;;;;21.80;57.70;;;;;;1588282;73;782;-65
2023/04/29 06:03:12;;;;;;;;;;;21.70;57.80;;;;;;1590784;73;1381;-64
2023/04/29 06:05:14;;;;;;;;;;;21.80;57.70;;;;;;1595249;73;1152;-63
2023/04/29 06:07:16;;;;;;;;;;;21.80;57.60;;;;;;1583605;73;747;-66
2023/04/29 06:09:19;;;;;;;;;;;21.80;57.60;;;;;;1550290;74;777;-63
2023/04/29 06:11:21;;;;;;;;;;;21.80;57.50;;;;;;1539069;76;1935;-64
2023/04/29 06:13:23;;;;;;;;;;;21.80;57.60;;;;;;1579562;73;760;-65
2023/04/29 06:15:25;;;;;;;;;;;21.80;57.60;;;;;;1592925;73;1154;-63
2023/04/29 06:17:31;;;;;;;;;;;21.90;57.60;;;;;;1587291;73;1544;-63
2023/04/29 06:19:32;;;;;;;;;;;21.80;57.50;;;;;;1588832;73;766;-62
2023/04/29 06:21:34;;;;;;;;;;;21.90;57.50;;;;;;1600128;74;777;-64
2023/04/29 06:23:36;;;;;;;;;;;21.90;57.60;;;;;;1583312;73;779;-64
2023/04/29 06:25:38;;;;;;;;;;;21.80;57.20;;;;;;1590951;73;1170;-63
2023/04/29 06:27:40;;;;;;;;;;;21.80;57.70;;;;;;1589265;73;637;-64
2023/04/29 06:29:42;;;;;;;;;;;21.80;57.70;;;;;;1605260;73;786;-63
2023/04/29 06:31:44;;;;;;;;;;;21.80;57.90;;;;;;1589110;73;1969;-63
2023/04/29 06:33:45;;;;;;;;;;;21.80;58.60;;;;;;1587266;73;782;-62
2023/04/29 06:35:47;;;;;;;;;;;21.80;58.10;;;;;;1601685;73;1161;-66
2023/04/29 06:37:49;;;;;;;;;;;21.90;58.10;;;;;;1602756;73;774;-67
2023/04/29 06:39:51;;;;;;;;;;;21.80;57.80;;;;;;1593898;73;760;-67
2023/04/29 06:41:53;;;;;;;;;;;21.80;57.50;;;;;;1583386;73;707;-66
2023/04/29 06:43:55;;;;;;;;;;;21.90;57.50;;;;;;1607407;73;1365;-64
2023/04/29 06:45:57;;;;;;;;;;;22.00;57.30;;;;;;1597251;73;1196;-64
2023/04/29 06:47:59;;;;;;;;;;;22.10;57.30;;;;;;1571970;73;650;-63
2023/04/29 06:50:01;;;;;;;;;;;22.20;56.90;;;;;;1591987;73;767;-64
2023/04/29 06:52:03;;;;;;;;;;;22.30;56.70;;;;;;1594284;73;1944;-64
2023/04/29 06:54:05;;;;;;;;;;;22.20;56.20;;;;;;1594941;73;650;-64
2023/04/29 06:56:07;;;;;;;;;;;22.30;56.00;;;;;;1586199;73;1163;-63
2023/04/29 06:58:09;;;;;;;;;;;22.20;55.70;;;;;;1586931;73;1487;-63
2023/04/29 07:00:11;;;;;;;;;;;22.20;55.60;;;;;;1585597;73;629;-64
2023/04/29 07:02:13;;;;;;;;;;;22.30;55.80;;;;;;1591236;73;690;-64
2023/04/29 07:04:15;;;;;;;;;;;22.30;55.60;;;;;;1593706;74;725;-64
2023/04/29 07:06:17;;;;;;;;;;;22.40;55.50;;;;;;1598344;73;1166;-64
2023/04/29 07:08:19;;;;;;;;;;;22.50;55.30;;;;;;1589537;73;785;-65
2023/04/29 07:10:20;;;;;;;;;;;22.50;54.90;;;;;;1593064;73;758;-63
2023/04/29 07:12:22;;;;;;;;;;;22.50;54.90;;;;;;1591791;73;1944;-63
2023/04/29 07:14:24;;;;;;;;;;;22.50;54.70;;;;;;1594758;73;730;-64
2023/04/29 07:16:27;;;;;;;;;;;22.50;54.70;;;;;;1579813;73;1152;-63
2023/04/29 07:18:28;;;;;;;;;;;22.50;54.20;;;;;;1588395;74;766;-65
2023/04/29 07:20:31;;;;;;;;;;;22.40;54.00;;;;;;1585935;73;764;-64
2023/04/29 07:22:32;;;;;;;;;;;22.40;54.10;;;;;;1582539;73;604;-64
2023/04/29 07:24:34;;;;;;;;;;;22.30;54.20;;;;;;1578822;74;749;-64
2023/04/29 07:26:36;;;;;;;;;;;22.30;54.20;;;;;;1592178;73;1377;-64
2023/04/29 07:28:38;;;;;;;;;;;22.30;54.30;;;;;;1591950;73;743;-63
2023/04/29 07:30:40;;;;;;;;;;;22.40;54.20;;;;;;1596068;73;748;-64
2023/04/29 07:32:42;;;;;;;;;;;22.30;54.10;;;;;;1594178;73;1949;-63
2023/04/29 07:34:44;;;;;;;;;;;22.30;54.00;;;;;;1598865;73;1204;-65
2023/04/29 07:36:46;;;;;;;;;;;22.20;53.90;;;;;;1596732;73;1163;-64
2023/04/29 07:38:48;;;;;;;;;;;22.30;53.90;;;;;;1592082;73;1218;-64
2023/04/29 07:40:50;;;;;;;;;;;22.20;53.90;;;;;;1586596;73;1508;-64
2023/04/29 07:42:51;;;;;;;;;;;22.40;54.00;;;;;;1597115;73;1220;-65
2023/04/29 07:44:53;;;;;;;;;;;22.40;53.90;;;;;;1583995;73;1357;-64
2023/04/29 07:46:55;;;;;;;;;;;22.40;53.90;;;;;;1591298;73;1378;-64
2023/04/29 07:48:57;;;;;;;;;;;22.30;53.80;;;;;;1582189;73;1360;-64
2023/04/29 07:50:59;;;;;;;;;;;22.40;53.80;;;;;;1581630;73;1388;-64
2023/04/29 07:53:01;;;;;;;;;;;22.30;53.80;;;;;;1592258;73;1941;-63
2023/04/29 07:55:03;;;;;;;;;;;22.40;53.80;;;;;;1593077;73;1391;-63
2023/04/29 07:57:05;;;;;;;;;;;22.30;53.80;;;;;;1590449;73;1363;-64
2023/04/29 07:59:07;;;;;;;;;;;22.30;53.90;;;;;;1592152;73;1080;-64
2023/04/29 08:01:10;;;;;;;;;;;22.40;53.80;;;;;;1593681;73;1389;-64
2023/04/29 08:03:12;;;;;;;;;;;22.50;53.80;;;;;;1591594;73;1374;-64
2023/04/29 08:05:14;;;;;;;;;;;22.50;53.60;;;;;;1593400;73;1377;-64
2023/04/29 08:07:16;;;;;;;;;;;22.60;53.50;;;;;;1589979;73;1374;-64
2023/04/29 08:09:18;;;;;;;;;;;22.60;53.40;;;;;;1588706;73;1356;-64
2023/04/29 08:11:20;;;;;;;;;;;22.60;53.20;;;;;;1599020;73;1395;-64
2023/04/29 08:13:22;;;;;;;;;;;22.70;53.20;;;;;;1596005;73;1945;-64
2023/04/29 08:15:24;;;;;;;;;;;22.60;53.10;;;;;;1593767;73;1369;-64
2023/04/29 08:17:25;;;;;;;;;;;22.70;53.10;;;;;;1591727;73;1365;-64
2023/04/29 08:19:27;;;;;;;;;;;22.60;52.80;;;;;;1585829;73;1371;-64
2023/04/29 08:21:31;;;;;;;;;;;22.60;52.90;;;;;;1595275;73;1369;-64
2023/04/29 08:23:33;;;;;;;;;;;22.60;53.00;;;;;;1588651;73;1424;-64
2023/04/29 08:25:35;;;;;;;;;;;22.60;52.80;;;;;;1586161;73;1390;-65
2023/04/29 08:27:37;;;;;;;;;;;22.60;52.80;;;;;;1601674;73;1370;-65
2023/04/29 08:29:38;;;;;;;;;;;22.50;52.90;;;;;;1589388;73;1358;-64
2023/04/29 08:31:40;;;;;;;;;;;22.50;52.90;;;;;;1593744;73;1075;-64
2023/04/29 08:33:42;;;;;;;;;;;22.50;53.00;;;;;;1587818;73;1953;-64
2023/04/29 08:35:44;;;;;;;;;;;22.60;52.90;;;;;;1600535;73;1383;-64
2023/04/29 08:37:46;;;;;;;;;;;22.70;53.00;;;;;;1592148;73;1386;-65
2023/04/29 08:39:48;;;;;;;;;;;22.70;52.80;;;;;;1587566;73;1384;-64
2023/04/29 08:41:50;;;;;;;;;;;22.60;52.50;;;;;;1598187;73;1365;-64
2023/04/29 08:43:53;;;;;;;;;;;22.60;52.60;;;;;;1587506;73;1375;-65
2023/04/29 08:45:55;;;;;;;;;;;22.60;52.70;;;;;;1591989;73;1368;-64
2023/04/29 08:47:57;;;;;;;;;;;22.70;52.80;;;;;;1581109;73;1281;-64
2023/04/29 08:50:01;;;;;;;;;;;22.70;52.70;;;;;;1598354;73;1348;-65
2023/04/29 08:52:03;;;;;;;;;;;22.70;52.50;;;;;;1594097;73;1453;-64
2023/04/29 08:54:06;;;;;;;;;;;22.60;52.40;;;;;;1593327;73;2000;-65
2023/04/29 08:56:12;;;;;;;;;;;22.60;52.50;;;;;;1586383;73;1381;-65
2023/04/29 08:58:15;;;;;;;;;;;22.60;52.40;;;;;;1581440;73;1572;-64
2023/04/29 09:00:18;;;;;;;;;;;22.60;52.50;;;;;;1587096;73;1381;-64
2023/04/29 09:02:20;;;;;;;;;;;22.50;52.40;;;;;;1580057;73;1380;-65
2023/04/29 09:04:40;;;;;;;;;;;22.50;52.30;;;;;;1582668;73;1362;-64
2023/04/29 09:06:42;;;;;;;;;;;22.50;52.40;;;;;;1596419;73;1335;-64
2023/04/29 09:08:43;;;;;;;;;;;22.40;52.40;;;;;;1594620;73;1361;-64
2023/04/29 09:10:46;;;;;;;;;;;22.30;52.50;;;;;;1593869;73;1337;-64
2023/04/29 09:12:48;;;;;;;;;;;22.40;52.60;;;;;;1591730;73;1944;-64
2023/04/29 09:14:50;;;;;;;;;;;22.50;52.40;;;;;;1591434;73;1402;-65
2023/04/29 09:16:52;;;;;;;;;;;22.50;52.60;;;;;;1597723;73;1383;-64
2023/04/29 09:18:55;;;;;;;;;;;22.50;52.50;;;;;;1596147;73;1347;-64
2023/04/29 09:20:57;;;;;;;;;;;22.50;52.60;;;;;;1591797;73;1340;-64
2023/04/29 09:23:00;;;;;;;;;;;22.50;52.40;;;;;;1598367;73;1247;-65
2023/04/29 09:25:14;;;;;;;;;;;22.50;52.30;;;;;;1594371;73;1347;-64
2023/04/29 09:27:28;;;;;;;;;;;22.40;52.10;;;;;;1589578;73;1388;-64
2023/04/29 09:29:31;;;;;;;;;;;22.50;52.40;;;;;;1597808;73;1231;-65
2023/04/29 09:31:33;;;;;;;;;;;22.40;52.20;;;;;;1597888;73;1374;-64
2023/04/29 09:33:54;;;;;;;;;;;22.40;52.30;;;;;;1593922;73;1963;-64
2023/04/29 09:35:56;;;;;;;;;;;22.40;52.30;;;;;;1587972;73;1362;-64
2023/04/29 09:38:10;;;;;;;;;;;22.40;52.40;;;;;;1590865;73;1219;-64
2023/04/29 09:40:29;;;;;;;;;;;22.50;52.40;;;;;;1588818;73;1361;-65
2023/04/29 09:42:33;;;;;;;;;;;22.50;52.30;;;;;;1599394;73;1363;-64
2023/04/29 09:44:38;;;;;;;;;;;22.60;52.30;;;;;;1567177;74;1394;-64
2023/04/29 09:46:39;;;;;;;;;;;22.60;52.30;;;;;;1604339;73;1402;-64
2023/04/29 09:48:41;;;;;;;;;;;22.50;52.20;;;;;;1596494;73;1357;-65
2023/04/29 09:50:45;;;;;;;;;;;22.50;52.20;;;;;;1589486;73;1382;-64
2023/04/29 09:52:48;;;;;;;;;;;22.50;52.30;;;;;;1588154;73;1942;-65
2023/04/29 09:54:50;;;;;;;;;;;22.50;52.20;;;;;;1571495;73;1364;-63
2023/04/29 09:56:52;;;;;;;;;;;22.50;52.10;;;;;;1594986;73;1400;-65
2023/04/29 09:58:55;;;;;;;;;;;22.50;52.10;;;;;;1585827;73;1408;-65
2023/04/29 10:01:00;;;;;;;;;;;22.40;52.00;;;;;;1591792;73;1374;-64
2023/04/29 10:03:02;;;;;;;;;;;22.40;52.10;;;;;;1596352;73;1362;-64
2023/04/29 10:05:04;;;;;;;;;;;22.40;52.10;;;;;;1590824;73;1395;-63
2023/04/29 10:07:06;;;;;;;;;;;22.30;52.10;;;;;;1588709;73;1346;-64
2023/04/29 10:09:08;;;;;;;;;;;22.30;52.10;;;;;;1599403;73;1094;-64
2023/04/29 10:11:10;;;;;;;;;;;22.30;52.10;;;;;;1594916;73;1521;-65
2023/04/29 10:13:12;;;;;;;;;;;22.30;52.10;;;;;;1591685;73;1969;-64
2023/04/29 10:15:18;;;;;;;;;;;22.30;52.10;;;;;;1591654;73;1334;-63
2023/04/29 10:17:22;;;;;;;;;;;22.30;52.10;;;;;;1597586;73;1403;-63
2023/04/29 10:19:28;;;;;;;;;;;22.40;52.00;;;;;;1588800;73;1854;-63
2023/04/29 10:21:33;;;;;;;;;;;22.40;51.90;;;;;;1600852;73;1401;-63
2023/04/29 10:23:35;;;;;;;;;;;22.30;51.80;;;;;;1594931;73;1365;-64
2023/04/29 10:25:37;;;;;;;;;;;22.40;51.90;;;;;;1593659;73;1402;-65
2023/04/29 10:27:40;;;;;;;;;;;22.40;52.00;;;;;;1596218;73;1393;-65
2023/04/29 10:29:42;;;;;;;;;;;22.30;52.00;;;;;;1579873;73;1411;-64
2023/04/29 10:31:44;;;;;;;;;;;22.30;52.00;;;;;;1595362;73;1371;-63
2023/04/29 10:33:46;;;;;;;;;;;22.30;52.00;;;;;;1593633;73;1946;-64
2023/04/29 10:35:48;;;;;;;;;;;22.20;51.80;;;;;;1590326;73;1385;-64
2023/04/29 10:37:51;;;;;;;;;;;22.20;52.00;;;;;;1599818;73;1368;-64
2023/04/29 10:39:58;;;;;;;;;;;22.20;52.20;;;;;;1603403;73;1376;-63
2023/04/29 10:42:00;;;;;;;;;;;22.20;52.30;;;;;;1590523;73;1568;-63
2023/04/29 10:44:03;;;;;;;;;;;22.20;52.20;;;;;;1593458;73;1395;-63
2023/04/29 10:46:17;;;;;;;;;;;22.20;52.20;;;;;;1585590;73;1367;-65
2023/04/29 10:48:22;;;;;;;;;;;22.20;52.20;;;;;;1592802;73;1480;-64
2023/04/29 10:50:22;;;;;;;;;;;22.20;52.20;;;;;;1562430;74;1191;-63
2023/04/29 10:52:24;;;;;;;;;;;22.20;52.20;;;;;;1607493;73;976;-64
2023/04/29 10:54:26;;;;;;;;;;;22.30;52.30;;;;;;1599579;73;1954;-63
2023/04/29 10:56:40;;;;;;;;;;;22.30;52.40;;;;;;1580787;73;1374;-64
2023/04/29 10:58:45;;;;;;;;;;;22.30;52.30;;;;;;1592676;73;1412;-65
2023/04/29 11:00:47;;;;;;;;;;;22.20;52.20;;;;;;1604635;73;1344;-64
2023/04/29 11:02:49;;;;;;;;;;;22.20;52.30;;;;;;1595859;73;1364;-64
2023/04/29 11:05:06;;;;;;;;;;;22.20;52.20;;;;;;1597060;73;1356;-64
2023/04/29 11:07:08;;;;;;;;;;;22.20;51.90;;;;;;1596045;73;1355;-64
2023/04/29 11:09:11;;;;;;;;;;;22.20;52.10;;;;;;1594835;73;1222;-64
2023/04/29 11:11:14;;;;;;;;;;;22.10;52.10;;;;;;1591759;73;1516;-64
2023/04/29 11:13:17;;;;;;;;;;;22.10;52.10;;;;;;1586061;73;1949;-64
2023/04/29 11:15:19;;;;;;;;;;;22.20;52.20;;;;;;1591813;73;1170;-64
2023/04/29 11:17:22;;;;;;;;;;;22.10;52.10;;;;;;1592557;74;676;-65
2023/04/29 11:19:36;;;;;;;;;;;22.20;52.10;;;;;;1565582;74;778;-64
2023/04/29 11:21:38;;;;;;;;;;;22.10;52.00;;;;;;1588387;73;618;-64
2023/04/29 11:23:41;;;;;;;;;;;22.10;52.00;;;;;;1578573;73;791;-64
2023/04/29 11:25:43;;;;;;;;;;;22.10;52.10;;;;;;1580434;73;1521;-64
2023/04/29 11:27:47;;;;;;;;;;;22.10;52.10;;;;;;1596026;73;759;-63
2023/04/29 11:29:49;;;;;;;;;;;22.10;52.00;;;;;;1596325;73;2048;-64
2023/04/29 11:31:53;;;;;;;;;;;22.10;52.00;;;;;;1597340;73;844;-63
2023/04/29 11:33:55;;;;;;;;;;;22.10;51.90;;;;;;1573273;73;1940;-64
2023/04/29 11:35:56;;;;;;;;;;;22.20;51.90;;;;;;1591790;73;1174;-64
2023/04/29 11:37:59;;;;;;;;;;;22.10;51.80;;;;;;1590786;73;772;-64
2023/04/29 11:40:01;;;;;;;;;;;22.20;51.70;;;;;;1598949;73;1434;-66
2023/04/29 11:42:03;;;;;;;;;;;22.10;51.70;;;;;;1594442;73;624;-63
2023/04/29 11:44:06;;;;;;;;;;;22.10;51.80;;;;;;1569370;74;771;-64
2023/04/29 11:46:09;;;;;;;;;;;22.10;51.80;;;;;;1584416;73;1156;-63
2023/04/29 11:48:13;;;;;;;;;;;22.10;51.80;;;;;;1591925;73;1525;-65
2023/04/29 11:50:16;;;;;;;;;;;22.00;51.70;;;;;;1590967;73;1472;-63
2023/04/29 11:52:18;;;;;;;;;;;22.00;51.70;;;;;;1600395;73;811;-64
2023/04/29 11:54:20;;;;;;;;;;;22.10;51.70;;;;;;1594831;73;1930;-65
2023/04/29 11:56:25;;;;;;;;;;;22.10;51.80;;;;;;1594335;73;1235;-64
2023/04/29 11:58:27;;;;;;;;;;;22.00;51.60;;;;;;1595239;73;829;-64
2023/04/29 12:00:28;;;;;;;;;;;22.10;51.70;;;;;;1601744;73;774;-64
2023/04/29 12:02:33;;;;;;;;;;;22.00;51.70;;;;;;1585240;73;772;-63
2023/04/29 12:04:37;;;;;;;;;;;22.00;51.70;;;;;;1585819;73;783;-64
2023/04/29 12:06:40;;;;;;;;;;;22.10;51.80;;;;;;1585510;73;1528;-63
2023/04/29 12:08:42;;;;;;;;;;;22.10;51.80;;;;;;1594590;73;1448;-64
2023/04/29 12:10:44;;;;;;;;;;;22.00;51.50;;;;;;1591348;73;1379;-64